createdAt,value
2023-03-07T00:00:29.633Z,9.418163
2023-03-07T00:01:29.645Z,9.418420
2023-03-07T00:02:29.690Z,9.418168
2023-03-07T00:03:29.645Z,9.418126
2023-03-07T00:04:29.633Z,9.418386
2023-03-07T00:05:29.604Z,9.418199
2023-03-07T00:06:29.594Z,9.418192
2023-03-07T00:07:29.595Z,9.418073
2023-03-07T00:08:29.592Z,9.418327
2023-03-07T00:09:29.575Z,9.418045
2023-03-07T00:10:29.579Z,9.417720
2023-03-07T00:11:29.586Z,9.417966
2023-03-07T00:12:29.565Z,9.417913
2023-03-07T00:13:29.545Z,9.417871
2023-03-07T00:14:29.539Z,9.418308
2023-03-07T00:15:29.528Z,9.418279
2023-03-07T00:16:29.614Z,9.417951
2023-03-07T00:17:29.521Z,9.418319
2023-03-07T00:18:29.514Z,9.418287
2023-03-07T00:19:29.505Z,9.418116
2023-03-07T00:20:29.491Z,9.418499
2023-03-07T00:21:29.518Z,9.418366
2023-03-07T00:22:29.478Z,9.418314
2023-03-07T00:23:29.480Z,9.418251
2023-03-07T00:24:29.467Z,9.418198
2023-03-07T00:25:29.456Z,9.418148
2023-03-07T00:26:29.463Z,9.418317
2023-03-07T00:27:29.462Z,9.418220
2023-03-07T00:28:29.465Z,9.418250
2023-03-07T00:29:29.438Z,9.418310
2023-03-07T00:30:29.440Z,9.418271
2023-03-07T00:31:29.451Z,9.418324
2023-03-07T00:32:29.413Z,9.418258
2023-03-07T00:33:29.414Z,9.418376
2023-03-07T00:34:29.424Z,9.418375
2023-03-07T00:35:29.444Z,9.418186
2023-03-07T00:36:29.393Z,9.418219
2023-03-07T00:37:29.396Z,9.418222
2023-03-07T00:38:29.381Z,9.418250
2023-03-07T00:39:29.385Z,9.418365
2023-03-07T00:40:29.387Z,9.418336
2023-03-07T00:41:29.430Z,9.418354
2023-03-07T00:42:29.363Z,9.418385
2023-03-07T00:43:29.347Z,9.418335
2023-03-07T00:44:29.363Z,9.418465
2023-03-07T00:45:29.364Z,9.418360
2023-03-07T00:46:29.331Z,9.418276
2023-03-07T00:47:29.311Z,9.418384
2023-03-07T00:48:29.321Z,9.418460
2023-03-07T00:49:29.311Z,9.418262
2023-03-07T00:50:29.380Z,9.418299
2023-03-07T00:51:29.304Z,9.418333
2023-03-07T00:52:29.291Z,9.418316
2023-03-07T00:53:29.286Z,9.418311
2023-03-07T00:54:29.284Z,9.418311
2023-03-07T00:55:29.292Z,9.418334
2023-03-07T00:56:29.266Z,9.418325
2023-03-07T00:57:29.268Z,9.418323
2023-03-07T00:58:29.252Z,9.418294
2023-03-07T00:59:29.236Z,9.418312
2023-03-07T01:00:29.261Z,9.418253
2023-03-07T01:01:29.249Z,9.418402
2023-03-07T01:02:29.220Z,9.418350
2023-03-07T01:03:29.234Z,9.418288
2023-03-07T01:04:29.239Z,9.418192
2023-03-07T01:05:29.219Z,9.418261
2023-03-07T01:06:29.196Z,9.418453
2023-03-07T01:07:29.185Z,9.418363
2023-03-07T01:08:29.180Z,9.418414
2023-03-07T01:09:29.176Z,9.418256
2023-03-07T01:10:29.185Z,9.418325
2023-03-07T01:11:29.150Z,9.418220
2023-03-07T01:12:29.144Z,9.418308
2023-03-07T01:13:29.153Z,9.418286
2023-03-07T01:14:29.134Z,9.418269
2023-03-07T01:15:29.139Z,9.418199
2023-03-07T01:16:29.158Z,9.418195
2023-03-07T01:17:29.116Z,9.418369
2023-03-07T01:18:29.111Z,9.418521
2023-03-07T01:19:29.103Z,9.418371
2023-03-07T01:20:29.112Z,9.418251
2023-03-07T01:21:29.093Z,9.418248
2023-03-07T01:22:29.104Z,9.418246
2023-03-07T01:23:29.084Z,9.418221
2023-03-07T01:24:29.068Z,9.418263
2023-03-07T01:25:29.099Z,9.418231
2023-03-07T01:26:29.077Z,9.418322
2023-03-07T01:27:29.060Z,9.418448
2023-03-07T01:28:29.054Z,9.418205
2023-03-07T01:29:30.041Z,9.417864
2023-03-07T01:30:29.037Z,9.417953
2023-03-07T01:31:29.090Z,9.418186
2023-03-07T01:32:29.034Z,9.418311
2023-03-07T01:33:29.008Z,9.418291
2023-03-07T01:34:29.023Z,9.418368
2023-03-07T01:35:29.010Z,9.418408
2023-03-07T01:36:29.047Z,9.418586
2023-03-07T01:37:28.996Z,9.418523
2023-03-07T01:38:28.989Z,9.418414
2023-03-07T01:39:28.978Z,9.418369
2023-03-07T01:40:28.990Z,9.418373
2023-03-07T01:41:28.982Z,9.418328
2023-03-07T01:42:28.983Z,9.418372
2023-03-07T01:43:28.964Z,9.418309
2023-03-07T01:44:28.967Z,9.418313
2023-03-07T01:45:28.949Z,9.418329
2023-03-07T01:46:28.946Z,9.418272
2023-03-07T01:47:28.941Z,9.418388
2023-03-07T01:48:28.916Z,9.418365
2023-03-07T01:49:28.934Z,9.418312
2023-03-07T01:50:28.905Z,9.418229
2023-03-07T01:51:29.903Z,9.418189
2023-03-07T01:52:28.907Z,9.418188
2023-03-07T01:53:28.892Z,9.418229
2023-03-07T01:54:28.890Z,9.418196
2023-03-07T01:55:28.891Z,9.418182
2023-03-07T01:56:28.871Z,9.418327
2023-03-07T01:57:29.868Z,9.418386
2023-03-07T01:58:28.857Z,9.418328
2023-03-07T01:59:28.849Z,9.418338
2023-03-07T02:00:28.861Z,9.418332
2023-03-07T02:01:28.954Z,9.418290
2023-03-07T02:02:28.852Z,9.418339
2023-03-07T02:03:28.824Z,9.418333
2023-03-07T02:04:28.833Z,9.418379
2023-03-07T02:05:28.821Z,9.418325
2023-03-07T02:06:28.814Z,9.418379
2023-03-07T02:07:28.845Z,9.418366
2023-03-07T02:08:28.836Z,9.418308
2023-03-07T02:09:28.800Z,9.418274
2023-03-07T02:10:28.778Z,9.418250
2023-03-07T02:11:28.775Z,9.418267
2023-03-07T02:12:28.781Z,9.418312
2023-03-07T02:13:28.786Z,9.418261
2023-03-07T02:14:28.769Z,9.418200
2023-03-07T02:15:28.744Z,9.418224
2023-03-07T02:16:28.741Z,9.418223
2023-03-07T02:17:28.753Z,9.418291
2023-03-07T02:18:28.747Z,9.418214
2023-03-07T02:19:28.722Z,9.418372
2023-03-07T02:20:28.724Z,9.418299
2023-03-07T02:21:28.703Z,9.418273
2023-03-07T02:22:29.713Z,9.418280
2023-03-07T02:23:28.694Z,9.418319
2023-03-07T02:24:28.697Z,9.418299
2023-03-07T02:25:28.687Z,9.418321
2023-03-07T02:26:28.667Z,9.418166
2023-03-07T02:27:28.671Z,9.418093
2023-03-07T02:28:28.687Z,9.418165
2023-03-07T02:29:28.658Z,9.418324
2023-03-07T02:30:28.644Z,9.418290
2023-03-07T02:31:28.659Z,9.418305
2023-03-07T02:32:28.708Z,9.418340
2023-03-07T02:33:28.651Z,9.418258
2023-03-07T02:34:28.796Z,9.418331
2023-03-07T02:35:28.645Z,9.418622
2023-03-07T02:36:28.617Z,9.418330
2023-03-07T02:37:28.649Z,9.418279
2023-03-07T02:38:28.605Z,9.418205
2023-03-07T02:39:28.608Z,9.418140
2023-03-07T02:40:28.613Z,9.418085
2023-03-07T02:41:28.580Z,9.418156
2023-03-07T02:42:28.583Z,9.418195
2023-03-07T02:43:28.581Z,9.418368
2023-03-07T02:44:28.567Z,9.418244
2023-03-07T02:45:28.582Z,9.418488
2023-03-07T02:46:28.610Z,9.418427
2023-03-07T02:47:28.544Z,9.418324
2023-03-07T02:48:28.540Z,9.418363
2023-03-07T02:49:28.539Z,9.418661
2023-03-07T02:50:28.588Z,9.418524
2023-03-07T02:51:28.520Z,9.418509
2023-03-07T02:52:28.520Z,9.418397
2023-03-07T02:53:28.511Z,9.418162
2023-03-07T02:54:28.500Z,9.418278
2023-03-07T02:55:28.504Z,9.418393
2023-03-07T02:56:28.492Z,9.418303
2023-03-07T02:57:28.477Z,9.418475
2023-03-07T02:58:28.492Z,9.418163
2023-03-07T02:59:28.474Z,9.418169
2023-03-07T03:00:28.488Z,9.418281
2023-03-07T03:01:28.556Z,9.418298
2023-03-07T03:02:28.456Z,9.418360
2023-03-07T03:03:28.462Z,9.418483
2023-03-07T03:04:28.472Z,9.418489
2023-03-07T03:05:28.450Z,9.418312
2023-03-07T03:06:28.458Z,9.418337
2023-03-07T03:07:28.421Z,9.418337
2023-03-07T03:08:28.417Z,9.418430
2023-03-07T03:09:28.414Z,9.418431
2023-03-07T03:10:28.404Z,9.418377
2023-03-07T03:11:28.416Z,9.418317
2023-03-07T03:12:28.398Z,9.418421
2023-03-07T03:13:28.384Z,9.418636
2023-03-07T03:14:28.380Z,9.418404
2023-03-07T03:15:28.376Z,9.418369
2023-03-07T03:16:28.451Z,9.418173
2023-03-07T03:17:28.354Z,9.418262
2023-03-07T03:18:28.357Z,9.418293
2023-03-07T03:19:28.366Z,9.418289
2023-03-07T03:20:28.421Z,9.418421
2023-03-07T03:21:28.341Z,9.418273
2023-03-07T03:22:28.332Z,9.418233
2023-03-07T03:23:28.329Z,9.418173
2023-03-07T03:24:28.321Z,9.418137
2023-03-07T03:25:28.333Z,9.418058
2023-03-07T03:26:28.298Z,9.418138
2023-03-07T03:27:28.309Z,9.418275
2023-03-07T03:28:28.313Z,9.418255
2023-03-07T03:29:28.298Z,9.418307
2023-03-07T03:30:28.303Z,9.418412
2023-03-07T03:31:28.362Z,9.418335
2023-03-07T03:32:28.291Z,9.418360
2023-03-07T03:33:28.298Z,9.418372
2023-03-07T03:34:28.262Z,9.418307
2023-03-07T03:35:28.253Z,9.418324
2023-03-07T03:36:28.254Z,9.418187
2023-03-07T03:37:28.241Z,9.418283
2023-03-07T03:38:28.249Z,9.418292
2023-03-07T03:39:28.234Z,9.418339
2023-03-07T03:40:28.220Z,9.418305
2023-03-07T03:41:28.220Z,9.418283
2023-03-07T03:42:28.212Z,9.418381
2023-03-07T03:43:28.192Z,9.418338
2023-03-07T03:44:28.214Z,9.418278
2023-03-07T03:45:28.183Z,9.418266
2023-03-07T03:46:28.202Z,9.418366
2023-03-07T03:47:28.210Z,9.418400
2023-03-07T03:48:28.162Z,9.418185
2023-03-07T03:49:28.177Z,9.418139
2023-03-07T03:50:28.154Z,9.418324
2023-03-07T03:51:28.144Z,9.418224
2023-03-07T03:52:28.142Z,9.418200
2023-03-07T03:53:28.124Z,9.418292
2023-03-07T03:54:28.163Z,9.418328
2023-03-07T03:55:28.123Z,9.418342
2023-03-07T03:56:28.124Z,9.418275
2023-03-07T03:57:28.127Z,9.418321
2023-03-07T03:58:28.100Z,9.418316
2023-03-07T03:59:28.132Z,9.418279
2023-03-07T04:00:28.085Z,9.418275
2023-03-07T04:01:28.086Z,9.418208
2023-03-07T04:02:28.136Z,9.418253
2023-03-07T04:03:28.070Z,9.418303
2023-03-07T04:04:28.075Z,9.418246
2023-03-07T04:05:28.065Z,9.418286
2023-03-07T04:06:28.063Z,9.418243
2023-03-07T04:07:28.047Z,9.418266
2023-03-07T04:08:28.051Z,9.418316
2023-03-07T04:09:28.051Z,9.418301
2023-03-07T04:10:28.027Z,9.418232
2023-03-07T04:11:28.028Z,9.418263
2023-03-07T04:12:28.003Z,9.418219
2023-03-07T04:13:28.006Z,9.418241
2023-03-07T04:14:28.025Z,9.418196
2023-03-07T04:15:28.001Z,9.418262
2023-03-07T04:16:28.034Z,9.418216
2023-03-07T04:17:27.989Z,9.418199
2023-03-07T04:18:27.964Z,9.418239
2023-03-07T04:19:29.449Z,9.418212
2023-03-07T04:20:28.961Z,9.418190
2023-03-07T04:21:27.966Z,9.418289
2023-03-07T04:22:27.954Z,9.418325
2023-03-07T04:23:27.946Z,9.418295
2023-03-07T04:24:27.965Z,9.418358
2023-03-07T04:25:27.934Z,9.418396
2023-03-07T04:26:27.929Z,9.418368
2023-03-07T04:27:27.925Z,9.418273
2023-03-07T04:28:27.927Z,9.418313
2023-03-07T04:29:27.926Z,9.418305
2023-03-07T04:30:27.892Z,9.418217
2023-03-07T04:31:27.933Z,9.418182
2023-03-07T04:32:27.898Z,9.418135
2023-03-07T04:33:27.886Z,9.418200
2023-03-07T04:34:27.868Z,9.418199
2023-03-07T04:35:27.905Z,9.418445
2023-03-07T04:36:27.857Z,9.418826
2023-03-07T04:37:27.872Z,9.418710
2023-03-07T04:38:27.845Z,9.418487
2023-03-07T04:39:27.836Z,9.418374
2023-03-07T04:40:27.838Z,9.418483
2023-03-07T04:41:27.836Z,9.418607
2023-03-07T04:42:27.827Z,9.418363
2023-03-07T04:43:27.808Z,9.418338
2023-03-07T04:44:27.804Z,9.418396
2023-03-07T04:45:27.799Z,9.418474
2023-03-07T04:46:27.779Z,9.418476
2023-03-07T04:47:27.793Z,9.418354
2023-03-07T04:48:27.783Z,9.418302
2023-03-07T04:49:27.782Z,9.418266
2023-03-07T04:50:27.775Z,9.418301
2023-03-07T04:51:27.771Z,9.418328
2023-03-07T04:52:27.771Z,9.418416
2023-03-07T04:53:27.756Z,9.418326
2023-03-07T04:54:27.742Z,9.418298
2023-03-07T04:55:27.740Z,9.418262
2023-03-07T04:56:27.724Z,9.418249
2023-03-07T04:57:27.733Z,9.418275
2023-03-07T04:58:27.728Z,9.418297
2023-03-07T04:59:27.702Z,9.418249
2023-03-07T05:00:27.704Z,9.418271
2023-03-07T05:01:27.783Z,9.418329
2023-03-07T05:02:27.712Z,9.418360
2023-03-07T05:03:27.683Z,9.418371
2023-03-07T05:04:27.731Z,9.418341
2023-03-07T05:05:27.661Z,9.418220
2023-03-07T05:06:27.655Z,9.418305
2023-03-07T05:07:27.661Z,9.418204
2023-03-07T05:08:27.649Z,9.418284
2023-03-07T05:09:27.664Z,9.418366
2023-03-07T05:10:27.693Z,9.418343
2023-03-07T05:11:27.640Z,9.418283
2023-03-07T05:12:27.636Z,9.418311
2023-03-07T05:13:27.633Z,9.418200
2023-03-07T05:14:27.629Z,9.418273
2023-03-07T05:15:27.621Z,9.418278
2023-03-07T05:16:27.593Z,9.418270
2023-03-07T05:17:27.595Z,9.418216
2023-03-07T05:18:27.607Z,9.418239
2023-03-07T05:19:27.594Z,9.418298
2023-03-07T05:20:27.565Z,9.418205
2023-03-07T05:21:27.564Z,9.418233
2023-03-07T05:22:27.551Z,9.418324
2023-03-07T05:23:27.579Z,9.418340
2023-03-07T05:24:27.547Z,9.418292
2023-03-07T05:25:27.534Z,9.418257
2023-03-07T05:26:28.536Z,9.418260
2023-03-07T05:27:27.522Z,9.418262
2023-03-07T05:28:27.544Z,9.418285
2023-03-07T05:29:27.522Z,9.418219
2023-03-07T05:30:27.516Z,9.418260
2023-03-07T05:31:27.562Z,9.418322
2023-03-07T05:32:27.537Z,9.418332
2023-03-07T05:33:27.501Z,9.418299
2023-03-07T05:34:27.483Z,9.418288
2023-03-07T05:35:27.496Z,9.418263
2023-03-07T05:36:27.466Z,9.418316
2023-03-07T05:37:27.459Z,9.418409
2023-03-07T05:38:27.481Z,9.418475
2023-03-07T05:39:27.501Z,9.418409
2023-03-07T05:40:27.452Z,9.418324
2023-03-07T05:41:27.466Z,9.418312
2023-03-07T05:42:27.430Z,9.418211
2023-03-07T05:43:27.419Z,9.418129
2023-03-07T05:44:27.436Z,9.418217
2023-03-07T05:45:27.403Z,9.418255
2023-03-07T05:46:27.432Z,9.418335
2023-03-07T05:47:27.386Z,9.418272
2023-03-07T05:48:27.394Z,9.418257
2023-03-07T05:49:27.387Z,9.418261
2023-03-07T05:50:27.370Z,9.418237
2023-03-07T05:51:27.370Z,9.418448
2023-03-07T05:52:27.364Z,9.418269
2023-03-07T05:53:27.372Z,9.418229
2023-03-07T05:54:27.364Z,9.418305
2023-03-07T05:55:27.383Z,9.418332
2023-03-07T05:56:27.351Z,9.418352
2023-03-07T05:57:27.348Z,9.418205
2023-03-07T05:58:27.351Z,9.418042
2023-03-07T05:59:27.315Z,9.418268
2023-03-07T06:00:27.306Z,9.418242
2023-03-07T06:01:27.299Z,9.418244
2023-03-07T06:02:27.309Z,9.418149
2023-03-07T06:03:27.333Z,9.418180
2023-03-07T06:04:27.291Z,9.418282
2023-03-07T06:05:27.280Z,9.418124
2023-03-07T06:06:27.291Z,9.418230
2023-03-07T06:07:27.329Z,9.418380
2023-03-07T06:08:27.267Z,9.418509
2023-03-07T06:09:27.247Z,9.418470
2023-03-07T06:10:27.257Z,9.418389
2023-03-07T06:11:27.288Z,9.418133
2023-03-07T06:12:27.241Z,9.418216
2023-03-07T06:13:27.230Z,9.418244
2023-03-07T06:14:27.212Z,9.418191
2023-03-07T06:15:27.222Z,9.418181
2023-03-07T06:16:27.237Z,9.418155
2023-03-07T06:17:27.271Z,9.418067
2023-03-07T06:18:27.189Z,9.418137
2023-03-07T06:19:27.269Z,9.418095
2023-03-07T06:20:27.200Z,9.418094
2023-03-07T06:21:27.178Z,9.418043
2023-03-07T06:22:27.200Z,9.418193
2023-03-07T06:23:27.201Z,9.418239
2023-03-07T06:24:27.157Z,9.418205
2023-03-07T06:25:27.144Z,9.418224
2023-03-07T06:26:27.141Z,9.418219
2023-03-07T06:27:27.139Z,9.418227
2023-03-07T06:28:27.140Z,9.418263
2023-03-07T06:29:27.223Z,9.418270
2023-03-07T06:30:27.116Z,9.418244
2023-03-07T06:31:27.118Z,9.418260
2023-03-07T06:32:27.190Z,9.418286
2023-03-07T06:33:27.105Z,9.418240
2023-03-07T06:34:27.092Z,9.418312
2023-03-07T06:35:27.092Z,9.418270
2023-03-07T06:36:27.092Z,9.418257
2023-03-07T06:37:27.073Z,9.418281
2023-03-07T06:38:27.085Z,9.418353
2023-03-07T06:39:27.297Z,9.418355
2023-03-07T06:40:27.066Z,9.418344
2023-03-07T06:41:27.068Z,9.418211
2023-03-07T06:42:27.047Z,9.418318
2023-03-07T06:43:27.086Z,9.418367
2023-03-07T06:44:27.033Z,9.418445
2023-03-07T06:45:27.076Z,9.418277
2023-03-07T06:46:27.007Z,9.418259
2023-03-07T06:47:27.007Z,9.418354
2023-03-07T06:48:26.995Z,9.418377
2023-03-07T06:49:27.005Z,9.418234
2023-03-07T06:50:35.213Z,9.418267
2023-03-07T06:51:28.977Z,9.418277
2023-03-07T06:52:26.972Z,9.418321
2023-03-07T06:53:26.968Z,9.418295
2023-03-07T06:54:26.968Z,9.418280
2023-03-07T06:55:26.943Z,9.418372
2023-03-07T06:56:26.938Z,9.418354
2023-03-07T06:57:26.938Z,9.418337
2023-03-07T06:58:26.925Z,9.418395
2023-03-07T06:59:26.943Z,9.418376
2023-03-07T07:00:26.920Z,9.418379
2023-03-07T07:01:26.900Z,9.418359
2023-03-07T07:02:27.029Z,9.418356
2023-03-07T07:03:26.891Z,9.418380
2023-03-07T07:04:26.879Z,9.418419
2023-03-07T07:05:26.910Z,9.418337
2023-03-07T07:06:26.854Z,9.418459
2023-03-07T07:07:26.858Z,9.418546
2023-03-07T07:08:26.850Z,9.418480
2023-03-07T07:09:26.842Z,9.418484
2023-03-07T07:10:26.846Z,9.418448
2023-03-07T07:11:26.849Z,9.418443
2023-03-07T07:12:26.832Z,9.418405
2023-03-07T07:13:26.871Z,9.418483
2023-03-07T07:14:26.811Z,9.418444
2023-03-07T07:15:26.826Z,9.418448
2023-03-07T07:16:27.129Z,9.418456
2023-03-07T07:17:26.823Z,9.418429
2023-03-07T07:18:26.807Z,9.418476
2023-03-07T07:19:26.797Z,9.418405
2023-03-07T07:20:26.780Z,9.418287
2023-03-07T07:21:26.757Z,9.418381
2023-03-07T07:22:26.789Z,9.418324
2023-03-07T07:23:26.749Z,9.418378
2023-03-07T07:24:26.745Z,9.418415
2023-03-07T07:25:26.734Z,9.418396
2023-03-07T07:26:26.745Z,9.418375
2023-03-07T07:27:26.746Z,9.418400
2023-03-07T07:28:26.726Z,9.418319
2023-03-07T07:29:26.739Z,9.418306
2023-03-07T07:30:27.234Z,9.418343
2023-03-07T07:31:26.795Z,9.418370
2023-03-07T07:32:26.880Z,9.418438
2023-03-07T07:33:26.741Z,9.418389
2023-03-07T07:34:26.686Z,9.418337
2023-03-07T07:35:27.682Z,9.418332
2023-03-07T07:36:26.664Z,9.418283
2023-03-07T07:37:26.666Z,9.418328
2023-03-07T07:38:26.690Z,9.418393
2023-03-07T07:39:26.666Z,9.418340
2023-03-07T07:40:26.656Z,9.418347
2023-03-07T07:41:26.641Z,9.418317
2023-03-07T07:42:26.627Z,9.418329
2023-03-07T07:43:26.634Z,9.418248
2023-03-07T07:44:26.635Z,9.418181
2023-03-07T07:45:26.627Z,9.418306
2023-03-07T07:46:26.604Z,9.418260
2023-03-07T07:47:26.609Z,9.418324
2023-03-07T07:48:26.671Z,9.418323
2023-03-07T07:49:26.596Z,9.418271
2023-03-07T07:50:26.606Z,9.418261
2023-03-07T07:51:26.583Z,9.418344
2023-03-07T07:52:26.602Z,9.418360
2023-03-07T07:53:26.558Z,9.418333
2023-03-07T07:54:26.551Z,9.418321
2023-03-07T07:55:26.590Z,9.418361
2023-03-07T07:56:26.611Z,9.418358
2023-03-07T07:57:26.548Z,9.418337
2023-03-07T07:58:26.529Z,9.418306
2023-03-07T07:59:26.516Z,9.418320
2023-03-07T08:00:26.531Z,9.418250
2023-03-07T08:01:26.507Z,9.418282
2023-03-07T08:02:26.560Z,9.418235
2023-03-07T08:03:26.595Z,9.418206
2023-03-07T08:04:26.570Z,9.418282
2023-03-07T08:05:26.482Z,9.418278
2023-03-07T08:06:26.566Z,9.418292
2023-03-07T08:07:26.497Z,9.418279
2023-03-07T08:08:26.468Z,9.418252
2023-03-07T08:09:26.456Z,9.418225
2023-03-07T08:10:26.490Z,9.418286
2023-03-07T08:11:26.456Z,9.418326
2023-03-07T08:12:27.945Z,9.418346
2023-03-07T08:13:27.453Z,9.418262
2023-03-07T08:14:26.430Z,9.418285
2023-03-07T08:15:26.425Z,9.418262
2023-03-07T08:16:26.421Z,9.418257
2023-03-07T08:17:26.406Z,9.418335
2023-03-07T08:18:26.417Z,9.418305
2023-03-07T08:19:26.376Z,9.418272
2023-03-07T08:20:26.399Z,9.418281
2023-03-07T08:21:26.374Z,9.418294
2023-03-07T08:22:26.371Z,9.418259
2023-03-07T08:23:26.362Z,9.418242
2023-03-07T08:24:39.763Z,9.418229
2023-03-07T08:25:28.350Z,9.418212
2023-03-07T08:26:26.343Z,9.418184
2023-03-07T08:27:26.328Z,9.418197
2023-03-07T08:28:26.331Z,9.418229
2023-03-07T08:29:26.331Z,9.418243
2023-03-07T08:30:26.424Z,9.418259
2023-03-07T08:31:26.342Z,9.418242
2023-03-07T08:32:26.319Z,9.418262
2023-03-07T08:33:26.300Z,9.418258
2023-03-07T08:34:27.290Z,9.418319
2023-03-07T08:35:26.375Z,9.418174
2023-03-07T08:36:26.272Z,9.418204
2023-03-07T08:37:26.274Z,9.418256
2023-03-07T08:38:27.924Z,9.418244
2023-03-07T08:39:27.261Z,9.418263
2023-03-07T08:40:26.259Z,9.418294
2023-03-07T08:41:26.253Z,9.418314
2023-03-07T08:42:26.418Z,9.418285
2023-03-07T08:43:26.232Z,9.418360
2023-03-07T08:44:26.229Z,9.418337
2023-03-07T08:45:26.222Z,9.418282
2023-03-07T08:46:26.339Z,9.418474
2023-03-07T08:47:26.191Z,9.418292
2023-03-07T08:48:26.179Z,9.418276
2023-03-07T08:49:26.212Z,9.418228
2023-03-07T08:50:26.227Z,9.418326
2023-03-07T08:51:26.159Z,9.418449
2023-03-07T08:52:26.147Z,9.418382
2023-03-07T08:53:26.154Z,9.418288
2023-03-07T08:54:26.151Z,9.418189
2023-03-07T08:55:26.137Z,9.418312
2023-03-07T08:56:26.139Z,9.418259
2023-03-07T08:57:26.144Z,9.418121
2023-03-07T08:58:26.107Z,9.418231
2023-03-07T08:59:26.107Z,9.417905
2023-03-07T09:00:26.107Z,9.418119
2023-03-07T09:01:26.120Z,9.418254
2023-03-07T09:02:26.083Z,9.418359
2023-03-07T09:03:26.077Z,9.418336
2023-03-07T09:04:26.097Z,9.418422
2023-03-07T09:05:26.072Z,9.418374
2023-03-07T09:06:26.060Z,9.418472
2023-03-07T09:07:26.156Z,9.418010
2023-03-07T09:08:26.048Z,9.418030
2023-03-07T09:09:26.034Z,9.417909
2023-03-07T09:10:26.022Z,9.418995
2023-03-07T09:11:26.036Z,9.418810
2023-03-07T09:12:26.015Z,9.418738
2023-03-07T09:13:26.023Z,9.418497
2023-03-07T09:14:25.999Z,9.418504
2023-03-07T09:15:25.993Z,9.418539
2023-03-07T09:16:26.027Z,9.418523
2023-03-07T09:17:25.993Z,9.418394
2023-03-07T09:18:25.976Z,9.418271
2023-03-07T09:19:26.798Z,9.418358
2023-03-07T09:20:25.972Z,9.418432
2023-03-07T09:21:25.963Z,9.418464
2023-03-07T09:22:26.004Z,9.418260
2023-03-07T09:23:25.945Z,9.418240
2023-03-07T09:24:25.943Z,9.418175
2023-03-07T09:25:25.940Z,9.418120
2023-03-07T09:26:25.930Z,9.418031
2023-03-07T09:27:25.918Z,9.418104
2023-03-07T09:28:25.905Z,9.417881
2023-03-07T09:29:25.900Z,9.417871
2023-03-07T09:30:25.911Z,9.418005
2023-03-07T09:31:25.990Z,9.417870
2023-03-07T09:32:25.900Z,9.418188
2023-03-07T09:33:25.870Z,9.418167
2023-03-07T09:34:25.865Z,9.418429
2023-03-07T09:35:25.885Z,9.418401
2023-03-07T09:36:25.891Z,9.418377
2023-03-07T09:37:25.847Z,9.418400
2023-03-07T09:38:25.840Z,9.418311
2023-03-07T09:39:25.832Z,9.418195
2023-03-07T09:40:25.817Z,9.418217
2023-03-07T09:41:25.831Z,9.418149
2023-03-07T09:42:25.826Z,9.417802
2023-03-07T09:43:25.805Z,9.417953
2023-03-07T09:44:25.794Z,9.417999
2023-03-07T09:45:25.815Z,9.417957
2023-03-07T09:46:25.782Z,9.417985
2023-03-07T09:47:25.774Z,9.417948
2023-03-07T09:48:25.792Z,9.418016
2023-03-07T09:49:25.761Z,9.418235
2023-03-07T09:50:25.797Z,9.418386
2023-03-07T09:51:25.752Z,9.418323
2023-03-07T09:52:25.756Z,9.418250
2023-03-07T09:53:25.744Z,9.418201
2023-03-07T09:54:26.731Z,9.418127
2023-03-07T09:55:25.724Z,9.418238
2023-03-07T09:56:25.723Z,9.418173
2023-03-07T09:57:25.716Z,9.417994
2023-03-07T09:58:25.708Z,9.418107
2023-03-07T09:59:25.689Z,9.418093
2023-03-07T10:00:25.694Z,9.418052
2023-03-07T10:01:25.679Z,9.418201
2023-03-07T10:02:25.683Z,9.418268
2023-03-07T10:03:25.692Z,9.418267
2023-03-07T10:04:25.721Z,9.418404
2023-03-07T10:05:25.650Z,9.418335
2023-03-07T10:06:25.653Z,9.418297
2023-03-07T10:07:25.632Z,9.418195
2023-03-07T10:08:25.647Z,9.418199
2023-03-07T10:09:25.693Z,9.418340
2023-03-07T10:10:25.621Z,9.418345
2023-03-07T10:11:25.622Z,9.418372
2023-03-07T10:12:25.604Z,9.418287
2023-03-07T10:13:25.599Z,9.418260
2023-03-07T10:14:25.632Z,9.418208
2023-03-07T10:15:25.579Z,9.418234
2023-03-07T10:16:25.649Z,9.418281
2023-03-07T10:17:25.571Z,9.418371
2023-03-07T10:18:25.568Z,9.418273
2023-03-07T10:19:25.598Z,9.418353
2023-03-07T10:20:25.548Z,9.418380
2023-03-07T10:21:25.552Z,9.418451
2023-03-07T10:22:25.545Z,9.418410
2023-03-07T10:23:25.525Z,9.418342
2023-03-07T10:24:25.530Z,9.418322
2023-03-07T10:25:25.537Z,9.418380
2023-03-07T10:26:25.513Z,9.418373
2023-03-07T10:27:25.534Z,9.418465
2023-03-07T10:28:25.509Z,9.418426
2023-03-07T10:29:25.496Z,9.418374
2023-03-07T10:30:25.513Z,9.418277
2023-03-07T10:31:26.520Z,9.418312
2023-03-07T10:32:25.496Z,9.418279
2023-03-07T10:33:25.489Z,9.418329
2023-03-07T10:34:27.323Z,9.418232
2023-03-07T10:35:26.445Z,9.418311
2023-03-07T10:36:26.452Z,9.418466
2023-03-07T10:37:25.439Z,9.418340
2023-03-07T10:38:25.436Z,9.418394
2023-03-07T10:39:25.442Z,9.418293
2023-03-07T10:40:25.456Z,9.418185
2023-03-07T10:41:25.430Z,9.418247
2023-03-07T10:42:25.434Z,9.418479
2023-03-07T10:43:25.436Z,9.418357
2023-03-07T10:44:25.394Z,9.418234
2023-03-07T10:45:25.396Z,9.418386
2023-03-07T10:46:27.141Z,9.418686
2023-03-07T10:47:25.400Z,9.418759
2023-03-07T10:48:25.348Z,9.418809
2023-03-07T10:49:25.353Z,9.418871
2023-03-07T10:50:25.334Z,9.418788
2023-03-07T10:51:25.338Z,9.418696
2023-03-07T10:52:25.338Z,9.418542
2023-03-07T10:53:25.329Z,9.418415
2023-03-07T10:54:25.324Z,9.418624
2023-03-07T10:55:25.318Z,9.418576
2023-03-07T10:56:25.353Z,9.418480
2023-03-07T10:57:25.304Z,9.418315
2023-03-07T10:58:25.299Z,9.418221
2023-03-07T10:59:25.304Z,9.418270
2023-03-07T11:00:25.280Z,9.418346
2023-03-07T11:01:25.328Z,9.418234
2023-03-07T11:02:25.268Z,9.418386
2023-03-07T11:03:25.251Z,9.418383
2023-03-07T11:04:25.269Z,9.418217
2023-03-07T11:05:25.245Z,9.418151
2023-03-07T11:06:25.248Z,9.418357
2023-03-07T11:07:25.235Z,9.418311
2023-03-07T11:08:25.237Z,9.418368
2023-03-07T11:09:25.236Z,9.418253
2023-03-07T11:10:25.203Z,9.418252
2023-03-07T11:11:25.220Z,9.418089
2023-03-07T11:12:25.210Z,9.418135
2023-03-07T11:13:25.182Z,9.418284
2023-03-07T11:14:25.188Z,9.418394
2023-03-07T11:15:25.174Z,9.418250
2023-03-07T11:16:25.231Z,9.417994
2023-03-07T11:17:25.164Z,9.418129
2023-03-07T11:18:25.162Z,9.418036
2023-03-07T11:19:25.146Z,9.418215
2023-03-07T11:20:25.138Z,9.418183
2023-03-07T11:21:25.152Z,9.418550
2023-03-07T11:22:25.132Z,9.417963
2023-03-07T11:23:25.121Z,9.418403
2023-03-07T11:24:25.151Z,9.418200
2023-03-07T11:25:25.125Z,9.418159
2023-03-07T11:26:25.097Z,9.418424
2023-03-07T11:27:25.117Z,9.418405
2023-03-07T11:28:25.084Z,9.418219
2023-03-07T11:29:25.088Z,9.418318
2023-03-07T11:30:25.099Z,9.418194
2023-03-07T11:31:26.205Z,9.418241
2023-03-07T11:32:25.119Z,9.418249
2023-03-07T11:33:25.080Z,9.418180
2023-03-07T11:34:25.049Z,9.418278
2023-03-07T11:35:25.044Z,9.418316
2023-03-07T11:36:25.038Z,9.418279
2023-03-07T11:37:25.062Z,9.418283
2023-03-07T11:38:25.030Z,9.418281
2023-03-07T11:39:25.018Z,9.418210
2023-03-07T11:40:25.000Z,9.418219
2023-03-07T11:41:25.003Z,9.418227
2023-03-07T11:42:25.023Z,9.418222
2023-03-07T11:43:25.003Z,9.418209
2023-03-07T11:44:24.998Z,9.418269